LFRS 121530Z AUTO 24007KT 210V280 9999 OVC016 09/06 Q1030 NOSIG

ElémentsDécodage
LFRS Station météo située sur l'aérodrome de NANTES Atlantique
121530Z émis le 12 du mois à 15h30 UTC
AUTO Bulletin édité par un automate
24007KT vent du 240°, 07 noeuds
210V280 vent de direction variable entre 210° et 280°
9999 visibilité horizontale supérieure à 10 Km
OVC016 couverture nuageuse totale (8/8) à 1600 pieds
09/06 température 09°C, point de rosée 06°C
 soit une humidité relative de 81%
Q1030 la pression au niveau de la mer (QNH) est de 1030 hPa
NOSIG Pas de changement significatif prévu au cours des deux heures suivant l'heure de l'observation